sensor_id;sensor_type;location;lat;lon;timestamp;temperature;humidity
21031;DHT22;61072;47.808;7.636;2022-11-20T00:01:24;7.80;99.90
21031;DHT22;61072;47.808;7.636;2022-11-20T00:03:52;7.70;99.90
21031;DHT22;61072;47.808;7.636;2022-11-20T00:06:21;7.70;99.90
21031;DHT22;61072;47.808;7.636;2022-11-20T00:08:48;7.70;99.90
21031;DHT22;61072;47.808;7.636;2022-11-20T00:11:17;7.70;99.90
21031;DHT22;61072;47.808;7.636;2022-11-20T00:13:45;7.80;99.90
21031;DHT22;61072;47.808;7.636;2022-11-20T00:16:15;7.70;99.90
21031;DHT22;61072;47.808;7.636;2022-11-20T00:18:42;7.80;99.90
21031;DHT22;61072;47.808;7.636;2022-11-20T00:21:23;7.80;99.90
21031;DHT22;61072;47.808;7.636;2022-11-20T00:23:51;7.80;99.90
21031;DHT22;61072;47.808;7.636;2022-11-20T00:26:22;7.80;99.90
21031;DHT22;61072;47.808;7.636;2022-11-20T00:28:54;7.80;99.90
21031;DHT22;61072;47.808;7.636;2022-11-20T00:31:22;7.80;99.90
21031;DHT22;61072;47.808;7.636;2022-11-20T00:33:49;7.80;99.90
21031;DHT22;61072;47.808;7.636;2022-11-20T00:36:18;7.80;99.90
21031;DHT22;61072;47.808;7.636;2022-11-20T00:38:46;7.80;99.90
21031;DHT22;61072;47.808;7.636;2022-11-20T00:41:15;7.70;99.90
21031;DHT22;61072;47.808;7.636;2022-11-20T00:43:42;7.70;99.90
21031;DHT22;61072;47.808;7.636;2022-11-20T00:46:14;7.70;99.90
21031;DHT22;61072;47.808;7.636;2022-11-20T00:48:42;7.70;99.90
21031;DHT22;61072;47.808;7.636;2022-11-20T00:51:12;7.70;99.90
21031;DHT22;61072;47.808;7.636;2022-11-20T00:53:38;7.70;99.90
21031;DHT22;61072;47.808;7.636;2022-11-20T00:56:07;7.70;99.90
21031;DHT22;61072;47.808;7.636;2022-11-20T00:58:36;7.70;99.90
21031;DHT22;61072;47.808;7.636;2022-11-20T01:01:09;7.70;99.90
21031;DHT22;61072;47.808;7.636;2022-11-20T01:03:39;7.70;99.90
21031;DHT22;61072;47.808;7.636;2022-11-20T01:06:07;7.70;99.90
21031;DHT22;61072;47.808;7.636;2022-11-20T01:08:35;7.70;99.90
21031;DHT22;61072;47.808;7.636;2022-11-20T01:11:08;7.70;99.90
21031;DHT22;61072;47.808;7.636;2022-11-20T01:13:36;7.70;99.90
21031;DHT22;61072;47.808;7.636;2022-11-20T01:16:17;7.60;99.90
21031;DHT22;61072;47.808;7.636;2022-11-20T01:18:47;7.60;99.90
21031;DHT22;61072;47.808;7.636;2022-11-20T01:21:19;7.60;99.90
21031;DHT22;61072;47.808;7.636;2022-11-20T01:23:47;7.50;99.90
21031;DHT22;61072;47.808;7.636;2022-11-20T01:26:26;7.50;99.90
21031;DHT22;61072;47.808;7.636;2022-11-20T01:28:53;7.50;99.90
21031;DHT22;61072;47.808;7.636;2022-11-20T01:31:32;7.50;99.90
21031;DHT22;61072;47.808;7.636;2022-11-20T01:34:01;7.50;99.90
21031;DHT22;61072;47.808;7.636;2022-11-20T01:36:30;7.50;99.90
21031;DHT22;61072;47.808;7.636;2022-11-20T01:39:03;7.50;99.90
21031;DHT22;61072;47.808;7.636;2022-11-20T01:41:31;7.50;99.90
21031;DHT22;61072;47.808;7.636;2022-11-20T01:44:19;7.50;99.90
21031;DHT22;61072;47.808;7.636;2022-11-20T01:46:59;7.50;99.90
21031;DHT22;61072;47.808;7.636;2022-11-20T01:49:41;7.50;99.90
21031;DHT22;61072;47.808;7.636;2022-11-20T01:52:20;7.50;99.90
21031;DHT22;61072;47.808;7.636;2022-11-20T01:54:57;7.50;99.90
21031;DHT22;61072;47.808;7.636;2022-11-20T01:57:26;7.50;99.90
21031;DHT22;61072;47.808;7.636;2022-11-20T01:59:59;7.50;99.90
21031;DHT22;61072;47.808;7.636;2022-11-20T02:02:26;7.40;99.90
21031;DHT22;61072;47.808;7.636;2022-11-20T02:04:56;7.40;99.90
21031;DHT22;61072;47.808;7.636;2022-11-20T02:07:25;7.50;99.90
21031;DHT22;61072;47.808;7.636;2022-11-20T02:09:52;7.50;99.90
21031;DHT22;61072;47.808;7.636;2022-11-20T02:12:24;7.50;99.90
21031;DHT22;61072;47.808;7.636;2022-11-20T02:15:09;7.50;99.90
21031;DHT22;61072;47.808;7.636;2022-11-20T02:17:36;7.50;99.90
21031;DHT22;61072;47.808;7.636;2022-11-20T02:20:04;7.50;99.90
21031;DHT22;61072;47.808;7.636;2022-11-20T02:22:39;7.50;99.90
21031;DHT22;61072;47.808;7.636;2022-11-20T02:25:09;7.60;99.90
21031;DHT22;61072;47.808;7.636;2022-11-20T02:27:36;7.60;99.90
21031;DHT22;61072;47.808;7.636;2022-11-20T02:30:04;7.60;99.90
21031;DHT22;61072;47.808;7.636;2022-11-20T02:32:35;7.60;99.90
21031;DHT22;61072;47.808;7.636;2022-11-20T02:35:55;7.60;99.90
21031;DHT22;61072;47.808;7.636;2022-11-20T02:37:59;7.60;99.90
21031;DHT22;61072;47.808;7.636;2022-11-20T02:40:27;7.50;99.90
21031;DHT22;61072;47.808;7.636;2022-11-20T02:42:55;7.60;99.90
21031;DHT22;61072;47.808;7.636;2022-11-20T02:45:23;7.60;99.90
21031;DHT22;61072;47.808;7.636;2022-11-20T02:47:51;7.60;99.90
21031;DHT22;61072;47.808;7.636;2022-11-20T02:50:18;7.60;99.90
21031;DHT22;61072;47.808;7.636;2022-11-20T02:52:45;7.60;99.90
21031;DHT22;61072;47.808;7.636;2022-11-20T02:55:12;7.60;99.90
21031;DHT22;61072;47.808;7.636;2022-11-20T02:57:38;7.60;99.90
21031;DHT22;61072;47.808;7.636;2022-11-20T03:00:06;7.60;99.90
21031;DHT22;61072;47.808;7.636;2022-11-20T03:02:33;7.60;99.90
21031;DHT22;61072;47.808;7.636;2022-11-20T03:05:00;7.60;99.90
21031;DHT22;61072;47.808;7.636;2022-11-20T03:07:27;7.60;99.90
21031;DHT22;61072;47.808;7.636;2022-11-20T03:09:53;7.60;99.90
21031;DHT22;61072;47.808;7.636;2022-11-20T03:12:20;7.50;99.90
21031;DHT22;61072;47.808;7.636;2022-11-20T03:14:47;7.50;99.90
21031;DHT22;61072;47.808;7.636;2022-11-20T03:17:18;7.50;99.90
21031;DHT22;61072;47.808;7.636;2022-11-20T03:19:45;7.50;99.90
21031;DHT22;61072;47.808;7.636;2022-11-20T03:22:11;7.50;99.90
21031;DHT22;61072;47.808;7.636;2022-11-20T03:24:38;7.60;99.90
21031;DHT22;61072;47.808;7.636;2022-11-20T03:27:05;7.60;99.90
21031;DHT22;61072;47.808;7.636;2022-11-20T03:29:31;7.60;99.90
21031;DHT22;61072;47.808;7.636;2022-11-20T03:31:58;7.60;99.90
21031;DHT22;61072;47.808;7.636;2022-11-20T03:34:25;7.60;99.90
21031;DHT22;61072;47.808;7.636;2022-11-20T03:36:52;7.60;99.90
21031;DHT22;61072;47.808;7.636;2022-11-20T03:39:18;7.60;99.90
21031;DHT22;61072;47.808;7.636;2022-11-20T03:41:46;7.60;99.90
21031;DHT22;61072;47.808;7.636;2022-11-20T03:44:12;7.60;99.90
21031;DHT22;61072;47.808;7.636;2022-11-20T03:46:39;7.60;99.90
21031;DHT22;61072;47.808;7.636;2022-11-20T03:49:06;7.60;99.90
21031;DHT22;61072;47.808;7.636;2022-11-20T03:51:35;7.60;99.90
21031;DHT22;61072;47.808;7.636;2022-11-20T03:54:05;7.60;99.90
21031;DHT22;61072;47.808;7.636;2022-11-20T03:56:34;7.60;99.90
21031;DHT22;61072;47.808;7.636;2022-11-20T03:59:01;7.60;99.90
21031;DHT22;61072;47.808;7.636;2022-11-20T04:01:31;7.60;99.90
21031;DHT22;61072;47.808;7.636;2022-11-20T04:03:58;7.60;99.90
21031;DHT22;61072;47.808;7.636;2022-11-20T04:06:33;7.60;99.90
21031;DHT22;61072;47.808;7.636;2022-11-20T04:09:00;7.60;99.90
21031;DHT22;61072;47.808;7.636;2022-11-20T04:11:29;7.50;99.90
21031;DHT22;61072;47.808;7.636;2022-11-20T04:13:58;7.50;99.90
21031;DHT22;61072;47.808;7.636;2022-11-20T04:16:26;7.50;99.90
21031;DHT22;61072;47.808;7.636;2022-11-20T04:18:57;7.50;99.90
21031;DHT22;61072;47.808;7.636;2022-11-20T04:21:25;7.40;99.90
21031;DHT22;61072;47.808;7.636;2022-11-20T04:23:53;7.50;99.90
21031;DHT22;61072;47.808;7.636;2022-11-20T04:26:21;7.50;99.90
21031;DHT22;61072;47.808;7.636;2022-11-20T04:28:48;7.50;99.90
21031;DHT22;61072;47.808;7.636;2022-11-20T04:31:18;7.50;99.90
21031;DHT22;61072;47.808;7.636;2022-11-20T04:33:45;7.50;99.90
21031;DHT22;61072;47.808;7.636;2022-11-20T04:36:23;7.50;99.90
21031;DHT22;61072;47.808;7.636;2022-11-20T04:38:53;7.50;99.90
21031;DHT22;61072;47.808;7.636;2022-11-20T04:41:25;7.40;99.90
21031;DHT22;61072;47.808;7.636;2022-11-20T04:43:57;7.40;99.90
21031;DHT22;61072;47.808;7.636;2022-11-20T04:46:27;7.40;99.90
21031;DHT22;61072;47.808;7.636;2022-11-20T04:48:54;7.40;99.90
21031;DHT22;61072;47.808;7.636;2022-11-20T04:51:21;7.40;99.90
21031;DHT22;61072;47.808;7.636;2022-11-20T04:53:47;7.40;99.90
21031;DHT22;61072;47.808;7.636;2022-11-20T04:56:14;7.40;99.90
21031;DHT22;61072;47.808;7.636;2022-11-20T04:58:41;7.40;99.90
21031;DHT22;61072;47.808;7.636;2022-11-20T05:01:16;7.40;99.90
21031;DHT22;61072;47.808;7.636;2022-11-20T05:03:44;7.40;99.90
21031;DHT22;61072;47.808;7.636;2022-11-20T05:06:13;7.40;99.90
21031;DHT22;61072;47.808;7.636;2022-11-20T05:08:40;7.40;99.90
21031;DHT22;61072;47.808;7.636;2022-11-20T05:11:09;7.40;99.90
21031;DHT22;61072;47.808;7.636;2022-11-20T05:13:37;7.40;99.90
21031;DHT22;61072;47.808;7.636;2022-11-20T05:16:09;7.40;99.90
21031;DHT22;61072;47.808;7.636;2022-11-20T05:18:37;7.50;99.90
21031;DHT22;61072;47.808;7.636;2022-11-20T05:21:05;7.40;99.90
21031;DHT22;61072;47.808;7.636;2022-11-20T05:23:32;7.40;99.90
21031;DHT22;61072;47.808;7.636;2022-11-20T05:25:59;7.40;99.90
21031;DHT22;61072;47.808;7.636;2022-11-20T05:28:28;7.40;99.90
21031;DHT22;61072;47.808;7.636;2022-11-20T05:30:55;7.50;99.90
21031;DHT22;61072;47.808;7.636;2022-11-20T05:33:22;7.50;99.90
21031;DHT22;61072;47.808;7.636;2022-11-20T05:35:48;7.40;99.90
21031;DHT22;61072;47.808;7.636;2022-11-20T05:38:15;7.40;99.90
21031;DHT22;61072;47.808;7.636;2022-11-20T05:40:42;7.40;99.90
21031;DHT22;61072;47.808;7.636;2022-11-20T05:43:09;7.40;99.90
21031;DHT22;61072;47.808;7.636;2022-11-20T05:45:35;7.40;99.90
21031;DHT22;61072;47.808;7.636;2022-11-20T05:48:02;7.40;99.90
21031;DHT22;61072;47.808;7.636;2022-11-20T05:50:30;7.40;99.90
21031;DHT22;61072;47.808;7.636;2022-11-20T05:53:00;7.40;99.90
21031;DHT22;61072;47.808;7.636;2022-11-20T05:55:27;7.50;99.90
21031;DHT22;61072;47.808;7.636;2022-11-20T05:57:54;7.40;99.90
21031;DHT22;61072;47.808;7.636;2022-11-20T06:00:21;7.40;99.90
21031;DHT22;61072;47.808;7.636;2022-11-20T06:02:48;7.50;99.90
21031;DHT22;61072;47.808;7.636;2022-11-20T06:05:15;7.50;99.90
21031;DHT22;61072;47.808;7.636;2022-11-20T06:07:42;7.40;99.90
21031;DHT22;61072;47.808;7.636;2022-11-20T06:10:09;7.50;99.90
21031;DHT22;61072;47.808;7.636;2022-11-20T06:12:36;7.50;99.90
21031;DHT22;61072;47.808;7.636;2022-11-20T06:15:04;7.50;99.90
21031;DHT22;61072;47.808;7.636;2022-11-20T06:17:31;7.50;99.90
21031;DHT22;61072;47.808;7.636;2022-11-20T06:19:57;7.40;99.90
21031;DHT22;61072;47.808;7.636;2022-11-20T06:22:24;7.40;99.90
21031;DHT22;61072;47.808;7.636;2022-11-20T06:24:51;7.40;99.90
21031;DHT22;61072;47.808;7.636;2022-11-20T06:27:17;7.40;99.90
21031;DHT22;61072;47.808;7.636;2022-11-20T06:29:44;7.40;99.90
21031;DHT22;61072;47.808;7.636;2022-11-20T06:32:11;7.40;99.90
21031;DHT22;61072;47.808;7.636;2022-11-20T06:34:37;7.40;99.90
21031;DHT22;61072;47.808;7.636;2022-11-20T06:37:05;7.40;99.90
21031;DHT22;61072;47.808;7.636;2022-11-20T06:39:31;7.40;99.90
21031;DHT22;61072;47.808;7.636;2022-11-20T06:41:58;7.40;99.90
21031;DHT22;61072;47.808;7.636;2022-11-20T06:44:25;7.40;99.90
21031;DHT22;61072;47.808;7.636;2022-11-20T06:46:52;7.40;99.90
21031;DHT22;61072;47.808;7.636;2022-11-20T06:49:18;7.50;99.90
21031;DHT22;61072;47.808;7.636;2022-11-20T06:51:46;7.50;99.90
21031;DHT22;61072;47.808;7.636;2022-11-20T06:54:13;7.50;99.90
21031;DHT22;61072;47.808;7.636;2022-11-20T06:56:39;7.50;99.90
21031;DHT22;61072;47.808;7.636;2022-11-20T06:59:07;7.50;99.90
21031;DHT22;61072;47.808;7.636;2022-11-20T07:01:34;7.50;99.90
21031;DHT22;61072;47.808;7.636;2022-11-20T07:04:01;7.50;99.90
21031;DHT22;61072;47.808;7.636;2022-11-20T07:06:29;7.50;99.90
21031;DHT22;61072;47.808;7.636;2022-11-20T07:08:56;7.50;99.90
21031;DHT22;61072;47.808;7.636;2022-11-20T07:11:23;7.50;99.90
21031;DHT22;61072;47.808;7.636;2022-11-20T07:13:50;7.50;99.90
21031;DHT22;61072;47.808;7.636;2022-11-20T07:16:17;7.50;99.90
21031;DHT22;61072;47.808;7.636;2022-11-20T07:18:43;7.50;99.90
21031;DHT22;61072;47.808;7.636;2022-11-20T07:21:16;7.50;99.90
21031;DHT22;61072;47.808;7.636;2022-11-20T07:23:43;7.50;99.90
21031;DHT22;61072;47.808;7.636;2022-11-20T07:26:10;7.50;99.90
21031;DHT22;61072;47.808;7.636;2022-11-20T07:28:37;7.50;99.90
21031;DHT22;61072;47.808;7.636;2022-11-20T07:31:05;7.50;99.90
21031;DHT22;61072;47.808;7.636;2022-11-20T07:33:34;7.50;99.90
21031;DHT22;61072;47.808;7.636;2022-11-20T07:36:01;7.50;99.90
21031;DHT22;61072;47.808;7.636;2022-11-20T07:38:27;7.60;99.90
21031;DHT22;61072;47.808;7.636;2022-11-20T07:40:55;7.60;99.90
21031;DHT22;61072;47.808;7.636;2022-11-20T07:43:23;7.60;99.90
21031;DHT22;61072;47.808;7.636;2022-11-20T07:45:51;7.70;99.90
21031;DHT22;61072;47.808;7.636;2022-11-20T07:48:18;7.70;99.90
21031;DHT22;61072;47.808;7.636;2022-11-20T07:50:45;7.60;99.90
21031;DHT22;61072;47.808;7.636;2022-11-20T07:53:12;7.70;99.90
21031;DHT22;61072;47.808;7.636;2022-11-20T07:55:40;7.60;99.90
21031;DHT22;61072;47.808;7.636;2022-11-20T07:58:06;7.70;99.90
21031;DHT22;61072;47.808;7.636;2022-11-20T08:00:33;7.70;99.90
21031;DHT22;61072;47.808;7.636;2022-11-20T08:03:03;7.70;99.90
21031;DHT22;61072;47.808;7.636;2022-11-20T08:05:30;7.70;99.90
21031;DHT22;61072;47.808;7.636;2022-11-20T08:07:57;7.70;99.90
21031;DHT22;61072;47.808;7.636;2022-11-20T08:10:24;7.80;99.90
21031;DHT22;61072;47.808;7.636;2022-11-20T08:12:52;7.80;99.90
21031;DHT22;61072;47.808;7.636;2022-11-20T08:15:40;7.80;99.90
21031;DHT22;61072;47.808;7.636;2022-11-20T08:18:09;7.80;99.90
21031;DHT22;61072;47.808;7.636;2022-11-20T08:20:57;7.80;99.90
21031;DHT22;61072;47.808;7.636;2022-11-20T08:23:23;7.80;99.90
21031;DHT22;61072;47.808;7.636;2022-11-20T08:25:50;7.80;99.90
21031;DHT22;61072;47.808;7.636;2022-11-20T08:28:17;7.90;99.90
21031;DHT22;61072;47.808;7.636;2022-11-20T08:30:48;7.90;99.90
21031;DHT22;61072;47.808;7.636;2022-11-20T08:33:15;7.90;99.90
21031;DHT22;61072;47.808;7.636;2022-11-20T08:35:41;7.90;99.90
21031;DHT22;61072;47.808;7.636;2022-11-20T08:38:09;7.90;99.90
21031;DHT22;61072;47.808;7.636;2022-11-20T08:40:36;8.00;99.90
21031;DHT22;61072;47.808;7.636;2022-11-20T08:43:03;8.00;99.90
21031;DHT22;61072;47.808;7.636;2022-11-20T08:45:29;8.00;99.90
21031;DHT22;61072;47.808;7.636;2022-11-20T08:48:00;8.00;99.90
21031;DHT22;61072;47.808;7.636;2022-11-20T08:50:27;8.00;99.90
21031;DHT22;61072;47.808;7.636;2022-11-20T08:52:54;8.10;99.90
21031;DHT22;61072;47.808;7.636;2022-11-20T08:55:20;8.10;99.90
21031;DHT22;61072;47.808;7.636;2022-11-20T08:57:47;8.10;99.90
21031;DHT22;61072;47.808;7.636;2022-11-20T09:00:17;8.20;99.90
21031;DHT22;61072;47.808;7.636;2022-11-20T09:02:43;8.20;99.90
21031;DHT22;61072;47.808;7.636;2022-11-20T09:05:10;8.30;99.90
21031;DHT22;61072;47.808;7.636;2022-11-20T09:07:37;8.30;99.90
21031;DHT22;61072;47.808;7.636;2022-11-20T09:10:04;8.30;99.90
21031;DHT22;61072;47.808;7.636;2022-11-20T09:12:52;8.30;99.90
21031;DHT22;61072;47.808;7.636;2022-11-20T09:15:19;8.40;99.90
21031;DHT22;61072;47.808;7.636;2022-11-20T09:17:53;8.40;99.90
21031;DHT22;61072;47.808;7.636;2022-11-20T09:20:20;8.40;99.90
21031;DHT22;61072;47.808;7.636;2022-11-20T09:22:48;8.40;99.90
21031;DHT22;61072;47.808;7.636;2022-11-20T09:25:14;8.40;99.90
21031;DHT22;61072;47.808;7.636;2022-11-20T09:27:41;8.40;99.90
21031;DHT22;61072;47.808;7.636;2022-11-20T09:30:10;8.40;99.90
21031;DHT22;61072;47.808;7.636;2022-11-20T09:32:38;8.40;99.90
21031;DHT22;61072;47.808;7.636;2022-11-20T09:35:06;8.40;99.90
21031;DHT22;61072;47.808;7.636;2022-11-20T09:37:32;8.50;99.90
21031;DHT22;61072;47.808;7.636;2022-11-20T09:39:59;8.50;99.90
21031;DHT22;61072;47.808;7.636;2022-11-20T09:45:14;8.60;99.90
21031;DHT22;61072;47.808;7.636;2022-11-20T09:47:52;8.60;99.90
21031;DHT22;61072;47.808;7.636;2022-11-20T09:50:44;8.60;99.90
21031;DHT22;61072;47.808;7.636;2022-11-20T09:53:32;8.50;99.90
21031;DHT22;61072;47.808;7.636;2022-11-20T09:56:03;8.60;99.90
21031;DHT22;61072;47.808;7.636;2022-11-20T09:58:42;8.50;99.90
21031;DHT22;61072;47.808;7.636;2022-11-20T10:01:15;8.50;99.90
21031;DHT22;61072;47.808;7.636;2022-11-20T10:06:39;8.40;99.90
21031;DHT22;61072;47.808;7.636;2022-11-20T10:14:37;8.50;99.90
21031;DHT22;61072;47.808;7.636;2022-11-20T10:17:55;8.50;99.90
21031;DHT22;61072;47.808;7.636;2022-11-20T10:20:46;8.50;99.90
21031;DHT22;61072;47.808;7.636;2022-11-20T10:26:01;8.60;99.90
21031;DHT22;61072;47.808;7.636;2022-11-20T10:28:44;8.70;99.90
21031;DHT22;61072;47.808;7.636;2022-11-20T10:31:34;8.70;99.90
21031;DHT22;61072;47.808;7.636;2022-11-20T10:34:06;8.80;99.90
21031;DHT22;61072;47.808;7.636;2022-11-20T10:36:44;8.80;99.90
21031;DHT22;61072;47.808;7.636;2022-11-20T10:39:21;8.90;99.90
21031;DHT22;61072;47.808;7.636;2022-11-20T10:41:52;8.90;99.90
21031;DHT22;61072;47.808;7.636;2022-11-20T10:44:21;8.90;99.90
21031;DHT22;61072;47.808;7.636;2022-11-20T10:47:16;8.90;99.90
21031;DHT22;61072;47.808;7.636;2022-11-20T10:49:51;9.00;99.90
21031;DHT22;61072;47.808;7.636;2022-11-20T10:52:42;9.10;99.90
21031;DHT22;61072;47.808;7.636;2022-11-20T10:56:09;9.10;99.90
21031;DHT22;61072;47.808;7.636;2022-11-20T10:58:22;9.10;99.90
21031;DHT22;61072;47.808;7.636;2022-11-20T11:01:03;9.20;99.90
21031;DHT22;61072;47.808;7.636;2022-11-20T11:03:31;9.30;99.90
21031;DHT22;61072;47.808;7.636;2022-11-20T11:06:14;9.20;99.90
21031;DHT22;61072;47.808;7.636;2022-11-20T11:08:43;9.30;99.90
21031;DHT22;61072;47.808;7.636;2022-11-20T11:11:30;9.30;99.90
21031;DHT22;61072;47.808;7.636;2022-11-20T11:14:10;9.40;99.90
21031;DHT22;61072;47.808;7.636;2022-11-20T11:16:49;9.40;99.90
21031;DHT22;61072;47.808;7.636;2022-11-20T11:19:17;9.30;99.90
21031;DHT22;61072;47.808;7.636;2022-11-20T11:21:49;9.20;99.90
21031;DHT22;61072;47.808;7.636;2022-11-20T11:24:25;9.20;99.90
21031;DHT22;61072;47.808;7.636;2022-11-20T11:27:13;9.20;99.90
21031;DHT22;61072;47.808;7.636;2022-11-20T11:29:44;9.20;99.90
21031;DHT22;61072;47.808;7.636;2022-11-20T11:32:19;9.20;99.90
21031;DHT22;61072;47.808;7.636;2022-11-20T11:35:17;9.30;99.90
21031;DHT22;61072;47.808;7.636;2022-11-20T11:37:45;9.30;99.90
21031;DHT22;61072;47.808;7.636;2022-11-20T11:40:15;9.30;99.90
21031;DHT22;61072;47.808;7.636;2022-11-20T11:42:54;9.30;99.90
21031;DHT22;61072;47.808;7.636;2022-11-20T11:45:21;9.30;99.90
21031;DHT22;61072;47.808;7.636;2022-11-20T11:47:48;9.40;99.90
21031;DHT22;61072;47.808;7.636;2022-11-20T11:50:21;9.40;99.90
21031;DHT22;61072;47.808;7.636;2022-11-20T11:53:07;9.40;99.90
21031;DHT22;61072;47.808;7.636;2022-11-20T12:01:32;9.50;99.90
21031;DHT22;61072;47.808;7.636;2022-11-20T12:04:21;9.60;99.90
21031;DHT22;61072;47.808;7.636;2022-11-20T12:07:06;9.80;99.90
21031;DHT22;61072;47.808;7.636;2022-11-20T12:09:57;9.90;99.90
21031;DHT22;61072;47.808;7.636;2022-11-20T12:12:29;9.90;99.90
21031;DHT22;61072;47.808;7.636;2022-11-20T12:14:57;9.90;99.90
21031;DHT22;61072;47.808;7.636;2022-11-20T12:17:24;10.00;99.90
21031;DHT22;61072;47.808;7.636;2022-11-20T12:19:51;10.00;99.90
21031;DHT22;61072;47.808;7.636;2022-11-20T12:27:49;10.10;99.90
21031;DHT22;61072;47.808;7.636;2022-11-20T12:30:19;10.00;99.90
21031;DHT22;61072;47.808;7.636;2022-11-20T12:33:12;10.00;99.90
21031;DHT22;61072;47.808;7.636;2022-11-20T12:50:50;9.50;99.90
21031;DHT22;61072;47.808;7.636;2022-11-20T12:53:54;9.50;99.90
21031;DHT22;61072;47.808;7.636;2022-11-20T13:00:10;9.60;99.90
21031;DHT22;61072;47.808;7.636;2022-11-20T13:08:15;9.70;99.90
21031;DHT22;61072;47.808;7.636;2022-11-20T13:16:36;9.70;99.90
21031;DHT22;61072;47.808;7.636;2022-11-20T13:19:05;9.80;99.90
21031;DHT22;61072;47.808;7.636;2022-11-20T13:21:40;9.70;99.90
21031;DHT22;61072;47.808;7.636;2022-11-20T13:27:01;9.70;99.90
21031;DHT22;61072;47.808;7.636;2022-11-20T13:29:28;9.70;99.90
21031;DHT22;61072;47.808;7.636;2022-11-20T13:32:17;9.70;99.90
21031;DHT22;61072;47.808;7.636;2022-11-20T13:34:59;9.60;99.90
21031;DHT22;61072;47.808;7.636;2022-11-20T13:42:44;9.40;99.90
21031;DHT22;61072;47.808;7.636;2022-11-20T13:45:26;9.40;99.90
21031;DHT22;61072;47.808;7.636;2022-11-20T13:47:54;9.40;99.90
21031;DHT22;61072;47.808;7.636;2022-11-20T13:50:39;9.40;99.90
21031;DHT22;61072;47.808;7.636;2022-11-20T14:02:00;9.30;99.90
21031;DHT22;61072;47.808;7.636;2022-11-20T14:04:32;9.30;99.90
21031;DHT22;61072;47.808;7.636;2022-11-20T14:07:00;9.30;99.90
21031;DHT22;61072;47.808;7.636;2022-11-20T14:09:33;9.30;99.90
21031;DHT22;61072;47.808;7.636;2022-11-20T14:12:03;9.20;99.90
21031;DHT22;61072;47.808;7.636;2022-11-20T14:14:32;9.20;99.90
21031;DHT22;61072;47.808;7.636;2022-11-20T14:17:30;9.20;99.90
21031;DHT22;61072;47.808;7.636;2022-11-20T14:20:04;9.30;99.90
21031;DHT22;61072;47.808;7.636;2022-11-20T14:22:31;9.30;99.90
21031;DHT22;61072;47.808;7.636;2022-11-20T14:27:41;9.30;99.90
21031;DHT22;61072;47.808;7.636;2022-11-20T14:32:42;9.30;99.90
21031;DHT22;61072;47.808;7.636;2022-11-20T14:35:18;9.40;99.90
21031;DHT22;61072;47.808;7.636;2022-11-20T14:37:47;9.40;99.90
21031;DHT22;61072;47.808;7.636;2022-11-20T14:40:33;9.40;99.90
21031;DHT22;61072;47.808;7.636;2022-11-20T14:43:18;9.40;99.90
21031;DHT22;61072;47.808;7.636;2022-11-20T14:46:07;9.40;99.90
21031;DHT22;61072;47.808;7.636;2022-11-20T14:48:54;9.40;99.90
21031;DHT22;61072;47.808;7.636;2022-11-20T14:51:36;9.40;99.90
21031;DHT22;61072;47.808;7.636;2022-11-20T14:54:18;9.40;99.90
21031;DHT22;61072;47.808;7.636;2022-11-20T14:57:01;9.40;99.90
21031;DHT22;61072;47.808;7.636;2022-11-20T14:59:33;9.30;99.90
21031;DHT22;61072;47.808;7.636;2022-11-20T15:02:11;9.30;99.90
21031;DHT22;61072;47.808;7.636;2022-11-20T15:04:49;9.30;99.90
21031;DHT22;61072;47.808;7.636;2022-11-20T15:07:43;9.30;99.90
21031;DHT22;61072;47.808;7.636;2022-11-20T15:10:23;9.20;99.90
21031;DHT22;61072;47.808;7.636;2022-11-20T15:12:56;9.20;99.90
21031;DHT22;61072;47.808;7.636;2022-11-20T15:18:17;9.10;99.90
21031;DHT22;61072;47.808;7.636;2022-11-20T15:20:44;9.10;99.90
21031;DHT22;61072;47.808;7.636;2022-11-20T15:23:13;9.10;99.90
21031;DHT22;61072;47.808;7.636;2022-11-20T15:25:41;9.10;99.90
21031;DHT22;61072;47.808;7.636;2022-11-20T15:28:20;9.10;99.90
21031;DHT22;61072;47.808;7.636;2022-11-20T15:30:48;9.10;99.90
21031;DHT22;61072;47.808;7.636;2022-11-20T15:33:16;9.10;99.90
21031;DHT22;61072;47.808;7.636;2022-11-20T15:35:44;9.10;99.90
21031;DHT22;61072;47.808;7.636;2022-11-20T15:38:11;9.00;99.90
21031;DHT22;61072;47.808;7.636;2022-11-20T15:40:37;9.00;99.90
21031;DHT22;61072;47.808;7.636;2022-11-20T15:43:04;9.00;99.90
21031;DHT22;61072;47.808;7.636;2022-11-20T15:46:00;8.90;99.90
21031;DHT22;61072;47.808;7.636;2022-11-20T15:48:32;8.90;99.90
21031;DHT22;61072;47.808;7.636;2022-11-20T15:53:33;8.90;99.90
21031;DHT22;61072;47.808;7.636;2022-11-20T15:56:00;8.80;99.90
21031;DHT22;61072;47.808;7.636;2022-11-20T15:58:26;8.90;99.90
21031;DHT22;61072;47.808;7.636;2022-11-20T16:00:53;8.80;99.90
21031;DHT22;61072;47.808;7.636;2022-11-20T16:03:20;8.80;99.90
21031;DHT22;61072;47.808;7.636;2022-11-20T16:05:47;8.80;99.90
21031;DHT22;61072;47.808;7.636;2022-11-20T16:08:14;8.80;99.90
21031;DHT22;61072;47.808;7.636;2022-11-20T16:10:41;8.80;99.90
21031;DHT22;61072;47.808;7.636;2022-11-20T16:13:13;8.80;99.90
21031;DHT22;61072;47.808;7.636;2022-11-20T16:15:59;8.80;99.90
21031;DHT22;61072;47.808;7.636;2022-11-20T16:18:27;8.80;99.90
21031;DHT22;61072;47.808;7.636;2022-11-20T16:20:54;8.70;99.90
21031;DHT22;61072;47.808;7.636;2022-11-20T16:23:21;8.70;99.90
21031;DHT22;61072;47.808;7.636;2022-11-20T16:25:50;8.70;99.90
21031;DHT22;61072;47.808;7.636;2022-11-20T16:28:17;8.70;99.90
21031;DHT22;61072;47.808;7.636;2022-11-20T16:30:45;8.70;99.90
21031;DHT22;61072;47.808;7.636;2022-11-20T16:33:14;8.70;99.90
21031;DHT22;61072;47.808;7.636;2022-11-20T16:35:41;8.70;99.90
21031;DHT22;61072;47.808;7.636;2022-11-20T16:38:08;8.70;99.90
21031;DHT22;61072;47.808;7.636;2022-11-20T16:40:35;8.70;99.90
21031;DHT22;61072;47.808;7.636;2022-11-20T16:43:10;8.60;99.90
21031;DHT22;61072;47.808;7.636;2022-11-20T16:45:42;8.70;99.90
21031;DHT22;61072;47.808;7.636;2022-11-20T16:48:15;8.60;99.90
21031;DHT22;61072;47.808;7.636;2022-11-20T16:50:50;8.70;99.90
21031;DHT22;61072;47.808;7.636;2022-11-20T16:53:19;8.60;99.90
21031;DHT22;61072;47.808;7.636;2022-11-20T16:55:46;8.60;99.90
21031;DHT22;61072;47.808;7.636;2022-11-20T16:58:13;8.60;99.90
21031;DHT22;61072;47.808;7.636;2022-11-20T17:00:41;8.60;99.90
21031;DHT22;61072;47.808;7.636;2022-11-20T17:03:15;8.60;99.90
21031;DHT22;61072;47.808;7.636;2022-11-20T17:05:43;8.60;99.90
21031;DHT22;61072;47.808;7.636;2022-11-20T17:08:10;8.60;99.90
21031;DHT22;61072;47.808;7.636;2022-11-20T17:10:36;8.60;99.90
21031;DHT22;61072;47.808;7.636;2022-11-20T17:13:03;8.60;99.90
21031;DHT22;61072;47.808;7.636;2022-11-20T17:15:30;8.60;99.90
21031;DHT22;61072;47.808;7.636;2022-11-20T17:17:57;8.60;99.90
21031;DHT22;61072;47.808;7.636;2022-11-20T17:20:23;8.60;99.90
21031;DHT22;61072;47.808;7.636;2022-11-20T17:22:50;8.60;99.90
21031;DHT22;61072;47.808;7.636;2022-11-20T17:25:17;8.60;99.90
21031;DHT22;61072;47.808;7.636;2022-11-20T17:27:43;8.60;99.90
21031;DHT22;61072;47.808;7.636;2022-11-20T17:30:10;8.60;99.90
21031;DHT22;61072;47.808;7.636;2022-11-20T17:32:37;8.50;99.90